Time;durP1;ratioP1;P1;durP2;ratioP2;P2;SDS_P1;SDS_P2;PMS_P1;PMS_P2;Temp;Humidity;BMP_temperature;BMP_pressure;BME280_temperature;BME280_humidity;BME280_pressure;Samples;Min_cycle;Max_cycle;Signal;HPM_P1;HPM_P2
2023/01/05 00:01:53;;;;;;;11.80;5.25;;;;;;;4.29;95.92;99765.84;1796391;80;21837;-78
2023/01/05 00:04:20;;;;;;;15.90;6.33;;;;;;;4.30;95.95;99771.88;1795961;80;21083;-77
2023/01/05 00:06:47;;;;;;;13.62;6.33;;;;;;;4.30;96.30;99757.73;1795619;79;21005;-77
2023/01/05 00:09:17;;;;;;;14.43;6.87;;;;;;;4.31;96.11;99769.30;1795475;80;21539;-78
2023/01/05 00:22:54;;;;;;;12.50;6.10;;;;;;;4.21;96.17;99757.61;1796500;80;21185;-77
2023/01/05 00:25:27;;;;;;;16.50;6.35;;;;;;;4.13;96.50;99742.08;1796258;79;20980;-77
2023/01/05 00:27:56;;;;;;;19.23;7.78;;;;;;;4.10;96.54;99744.20;1796331;79;21005;-77
2023/01/05 00:30:27;;;;;;;14.38;6.55;;;;;;;4.02;96.96;99752.27;1783951;79;21487;-77
2023/01/05 00:32:54;;;;;;;18.35;7.55;;;;;;;4.06;97.39;99760.45;1790195;80;20987;-77
2023/01/05 00:35:22;;;;;;;17.50;7.37;;;;;;;3.97;98.91;99768.91;1771510;81;21436;-77
2023/01/05 00:37:49;;;;;;;12.25;6.58;;;;;;;4.00;98.26;99756.52;1790224;80;21548;-77
2023/01/05 00:40:20;;;;;;;16.27;7.97;;;;;;;4.02;98.00;99754.84;1771436;81;21499;-77
2023/01/05 00:42:47;;;;;;;20.05;8.68;;;;;;;3.96;98.61;99751.77;1790039;80;20983;-77
2023/01/05 00:45:16;;;;;;;19.27;8.23;;;;;;;3.96;98.41;99747.91;1771370;81;20987;-77
2023/01/05 00:47:43;;;;;;;18.60;8.23;;;;;;;3.97;98.39;99747.47;1765870;80;20951;-77
2023/01/05 00:50:14;;;;;;;19.75;8.75;;;;;;;3.95;98.29;99749.16;1771267;81;20971;-77
2023/01/05 00:52:41;;;;;;;20.08;8.68;;;;;;;3.91;99.06;99743.54;1770981;81;21515;-77
2023/01/05 00:55:08;;;;;;;20.40;8.85;;;;;;;3.92;99.42;99736.25;1778627;81;21487;-77
2023/01/05 00:57:36;;;;;;;19.82;8.20;;;;;;;3.93;98.99;99739.28;1766555;81;21141;-77
2023/01/05 01:00:06;;;;;;;18.20;8.58;;;;;;;3.92;99.14;99729.42;1777515;81;21011;-76
2023/01/05 01:02:33;;;;;;;16.45;7.80;;;;;;;3.92;99.39;99726.84;1767655;81;21046;-76
2023/01/05 01:05:00;;;;;;;18.12;7.95;;;;;;;3.96;99.32;99720.89;1778551;81;21425;-76
2023/01/05 01:07:27;;;;;;;18.67;8.03;;;;;;;3.96;99.78;99729.04;1767721;81;21076;-76
2023/01/05 01:09:53;;;;;;;23.55;9.48;;;;;;;3.98;99.85;99716.63;1767633;81;21035;-77
2023/01/05 01:12:20;;;;;;;18.87;8.25;;;;;;;3.99;100.00;99720.91;1728880;81;20995;-76
2023/01/05 01:14:48;;;;;;;18.52;8.75;;;;;;;4.03;99.45;99732.10;1761724;80;20952;-77
2023/01/05 01:17:18;;;;;;;16.85;8.03;;;;;;;4.02;99.47;99727.82;1790334;78;20986;-76
2023/01/05 01:19:45;;;;;;;18.27;8.00;;;;;;;4.03;99.40;99725.67;1790363;79;20987;-77
2023/01/05 01:22:12;;;;;;;16.93;8.28;;;;;;;4.03;99.07;99719.23;1740765;80;20961;-77
2023/01/05 01:24:39;;;;;;;18.62;7.80;;;;;;;3.99;99.14;99713.19;1767743;79;21034;-76
2023/01/05 01:27:05;;;;;;;19.95;8.80;;;;;;;4.01;98.86;99711.92;1770085;79;21462;-76
2023/01/05 01:29:32;;;;;;;18.00;9.15;;;;;;;3.92;98.98;99706.27;1768918;80;20926;-77
2023/01/05 01:31:59;;;;;;;21.02;8.85;;;;;;;3.89;99.14;99702.78;1768949;79;21003;-76
2023/01/05 01:34:26;;;;;;;15.25;7.87;;;;;;;3.86;99.04;99702.34;1766874;79;20971;-77
2023/01/05 01:36:55;;;;;;;16.90;7.75;;;;;;;3.86;98.71;99695.02;1770402;79;20939;-76
2023/01/05 01:39:23;;;;;;;16.15;6.67;;;;;;;3.82;98.60;99693.26;1768049;80;20999;-77
2023/01/05 01:41:52;;;;;;;19.32;8.23;;;;;;;3.72;99.41;99691.88;1768175;79;21002;-77
2023/01/05 01:44:55;;;;;;;16.48;7.83;;;;;;;3.73;99.15;99696.59;1768159;79;21479;-77
2023/01/05 01:47:38;;;;;;;19.98;8.33;;;;;;;3.73;99.39;99703.03;1768683;79;21040;-76
2023/01/05 01:50:19;;;;;;;18.52;8.78;;;;;;;3.70;99.94;99703.86;1766289;80;20959;-77
2023/01/05 01:52:50;;;;;;;20.77;9.25;;;;;;;3.69;100.00;99711.12;1769191;79;21009;-76
2023/01/05 01:55:17;;;;;;;16.02;7.55;;;;;;;3.66;100.00;99690.53;1768618;80;20942;-76
2023/01/05 01:57:46;;;;;;;22.87;9.18;;;;;;;3.68;100.00;99682.41;1764142;81;21057;-76
2023/01/05 02:00:13;;;;;;;25.60;10.20;;;;;;;3.66;100.00;99672.53;1769668;80;21013;-77
2023/01/05 02:02:52;;;;;;;16.50;8.53;;;;;;;3.67;100.00;99678.09;1765195;79;21023;-78
2023/01/05 02:05:25;;;;;;;17.50;8.15;;;;;;;3.70;99.77;99664.40;1770347;80;21469;-76
2023/01/05 02:07:52;;;;;;;17.60;8.25;;;;;;;3.68;100.00;99650.66;1764686;79;20979;-77
2023/01/05 02:10:24;;;;;;;18.42;7.87;;;;;;;3.77;100.00;99654.20;1770035;79;20968;-77
2023/01/05 02:13:07;;;;;;;20.97;8.03;;;;;;;3.75;100.00;99654.61;1765192;79;20987;-77
2023/01/05 02:15:44;;;;;;;15.58;7.67;;;;;;;3.81;100.00;99654.25;1770291;79;21480;-76
2023/01/05 02:18:40;;;;;;;20.05;8.75;;;;;;;3.84;100.00;99644.88;1763265;79;20950;-77
2023/01/05 02:21:20;;;;;;;16.15;7.70;;;;;;;3.87;100.00;99640.17;1770916;79;20945;-76
2023/01/05 02:24:14;;;;;;;18.80;9.30;;;;;;;3.89;100.00;99635.47;1750855;79;20954;-76
2023/01/05 02:27:09;;;;;;;17.80;8.05;;;;;;;3.93;100.00;99631.23;1769768;79;20964;-76
2023/01/05 02:29:56;;;;;;;19.75;7.97;;;;;;;3.95;99.80;99611.53;1768446;81;20997;-77
2023/01/05 02:32:54;;;;;;;18.65;7.75;;;;;;;3.93;99.86;99593.50;1776774;78;20952;-76
2023/01/05 02:35:46;;;;;;;14.93;7.03;;;;;;;3.94;99.74;99581.52;1765682;80;21753;-77
2023/01/05 02:38:30;;;;;;;18.02;8.43;;;;;;;3.93;99.63;99582.36;1768308;81;20985;-77
2023/01/05 02:40:59;;;;;;;;;;;;;;;3.92;99.66;99580.61;1755279;79;20970;-76
2023/01/05 02:43:28;;;;;;;16.60;9.08;;;;;;;3.94;99.53;99590.52;1780291;78;20116;-77
2023/01/05 02:45:54;;;;;;;15.93;8.08;;;;;;;3.95;99.41;99589.66;1771161;79;20966;-76
2023/01/05 02:48:22;;;;;;;17.73;8.25;;;;;;;3.94;99.48;99587.52;1768746;80;20977;-76
2023/01/05 02:50:59;;;;;;;16.80;7.92;;;;;;;3.99;99.28;99589.69;1771098;79;21071;-76
2023/01/05 02:53:33;;;;;;;14.58;7.30;;;;;;;3.97;99.25;99594.39;1768793;80;21004;-76
2023/01/05 02:56:08;;;;;;;18.50;8.10;;;;;;;3.97;99.24;99599.11;1754418;79;21565;-77
2023/01/05 02:58:43;;;;;;;17.42;7.53;;;;;;;4.00;99.16;99595.73;1750733;81;21016;-76
2023/01/05 03:01:22;;;;;;;17.25;7.70;;;;;;;3.96;99.20;99574.67;1771334;79;20958;-76
2023/01/05 03:04:06;;;;;;;17.15;7.97;;;;;;;3.93;99.36;99570.34;1771611;79;20958;-76
2023/01/05 03:06:45;;;;;;;17.20;8.45;;;;;;;3.91;99.55;99575.90;1780309;79;20982;-77
2023/01/05 03:09:06;;;;;;;19.23;9.60;;;;;;;3.94;99.34;99572.09;1766934;79;21018;-79
2023/01/05 03:14:59;;;;;;;22.13;8.20;;;;;;;3.97;99.18;99565.66;1771723;79;20957;-77
2023/01/05 03:17:43;;;;;;;16.40;7.42;;;;;;;3.96;99.17;99554.95;1744764;79;20950;-77
2023/01/05 03:20:13;;;;;;;13.45;6.58;;;;;;;3.99;99.20;99533.09;1770984;79;21040;-76
2023/01/05 03:37:36;;;;;;;11.88;6.33;;;;;;;3.99;98.91;99507.80;1774098;79;20946;-76
2023/01/05 03:40:09;;;;;;;15.53;7.05;;;;;;;4.01;98.78;99505.25;1772296;79;20984;-76
2023/01/05 03:42:37;;;;;;;;;;;;;;;3.98;98.68;99500.95;1763769;80;20997;-76
2023/01/05 03:45:07;;;;;;;17.75;6.80;;;;;;;3.94;98.39;99509.49;1770667;81;20109;-76
2023/01/05 03:47:33;;;;;;;14.58;7.05;;;;;;;3.90;98.34;99504.73;1792786;79;21479;-77
2023/01/05 03:50:00;;;;;;;13.08;6.22;;;;;;;3.89;98.38;99497.00;1773162;79;21077;-76
2023/01/05 03:52:28;;;;;;;12.68;6.65;;;;;;;3.87;98.33;99493.55;1757650;80;20961;-77
2023/01/05 03:54:54;;;;;;;13.30;6.42;;;;;;;3.82;98.38;99490.07;1771093;79;20990;-77
2023/01/05 03:57:22;;;;;;;13.88;6.35;;;;;;;3.79;98.20;99489.63;1734779;80;21566;-77
2023/01/05 03:59:49;;;;;;;16.90;6.92;;;;;;;3.82;98.11;99484.52;1777584;79;21331;-77
2023/01/05 04:02:16;;;;;;;13.38;6.70;;;;;;;3.76;98.23;99478.02;1787341;78;21511;-77
2023/01/05 04:04:43;;;;;;;13.15;6.53;;;;;;;3.71;98.24;99474.56;1750963;81;21001;-77
2023/01/05 04:07:09;;;;;;;16.62;7.05;;;;;;;3.66;98.23;99472.36;1768352;79;20981;-77
2023/01/05 04:09:36;;;;;;;12.63;6.30;;;;;;;3.54;98.70;99475.68;1764717;81;21053;-77
2023/01/05 04:12:03;;;;;;;14.87;7.58;;;;;;;3.49;98.58;99467.08;1768174;80;21016;-77
2023/01/05 04:14:31;;;;;;;18.60;7.00;;;;;;;3.41;98.80;99463.15;1765152;80;21552;-77
2023/01/05 04:16:58;;;;;;;18.55;6.80;;;;;;;3.37;99.01;99453.25;1768882;79;21083;-77
2023/01/05 04:19:25;;;;;;;14.38;5.92;;;;;;;3.39;98.92;99448.98;1766231;79;21065;-77
2023/01/05 04:21:52;;;;;;;13.85;6.35;;;;;;;3.30;99.39;99447.64;1769745;80;20970;-77
2023/01/05 04:24:19;;;;;;;14.00;7.12;;;;;;;3.19;99.87;99446.22;1765552;81;20975;-77
2023/01/05 04:26:47;;;;;;;15.70;6.85;;;;;;;3.22;99.94;99452.23;1768454;79;20973;-77
2023/01/05 04:29:13;;;;;;;14.87;6.25;;;;;;;3.25;99.35;99450.57;1766834;79;22170;-76
2023/01/05 04:31:40;;;;;;;15.43;7.53;;;;;;;3.22;99.68;99448.38;1768041;79;20988;-76
2023/01/05 04:34:07;;;;;;;20.35;6.60;;;;;;;3.22;99.89;99437.67;1768106;79;21001;-78
2023/01/05 04:36:34;;;;;;;14.65;6.85;;;;;;;3.17;100.00;99439.36;1768169;79;20993;-76
2023/01/05 04:39:01;;;;;;;14.95;7.58;;;;;;;3.17;100.00;99440.64;1737191;81;21007;-78
2023/01/05 04:41:29;;;;;;;13.18;6.85;;;;;;;3.16;100.00;99438.50;1769975;81;21041;-78
2023/01/05 04:43:56;;;;;;;16.05;6.92;;;;;;;3.14;100.00;99436.34;1768553;79;21080;-77
2023/01/05 04:46:23;;;;;;;15.90;7.45;;;;;;;3.15;100.00;99431.63;1767374;80;20954;-77
2023/01/05 04:48:50;;;;;;;12.75;6.10;;;;;;;3.17;100.00;99420.09;1768890;79;21052;-77
2023/01/05 04:51:18;;;;;;;16.25;6.78;;;;;;;3.20;100.00;99420.09;1737173;81;21557;-77
2023/01/05 04:53:45;;;;;;;13.32;6.25;;;;;;;3.18;100.00;99426.53;1768814;79;21028;-77
2023/01/05 04:56:14;;;;;;;14.47;6.17;;;;;;;3.16;100.00;99416.66;1765078;79;21096;-76
2023/01/05 04:58:43;;;;;;;15.63;6.92;;;;;;;3.10;100.00;99422.14;1769545;79;21040;-76
2023/01/05 05:01:10;;;;;;;15.32;6.70;;;;;;;3.09;100.00;99416.16;1764288;79;20989;-77
2023/01/05 05:03:37;;;;;;;13.85;6.85;;;;;;;3.08;100.00;99416.98;1769662;79;21343;-77
2023/01/05 05:06:06;;;;;;;18.30;6.92;;;;;;;3.04;100.00;99416.94;1765644;79;20997;-76
2023/01/05 05:08:33;;;;;;;15.80;7.60;;;;;;;3.03;100.00;99405.81;1766344;81;21001;-75
2023/01/05 05:11:01;;;;;;;19.42;8.15;;;;;;;3.00;100.00;99399.34;1767579;80;21040;-77
2023/01/05 05:13:30;;;;;;;16.12;7.62;;;;;;;2.99;100.00;99393.79;1764591;81;20965;-77
2023/01/05 05:15:57;;;;;;;18.48;7.80;;;;;;;2.92;100.00;99391.99;1769564;79;21485;-77
2023/01/05 05:18:24;;;;;;;13.83;7.25;;;;;;;2.85;100.00;99396.21;1769727;79;20946;-77
2023/01/05 05:20:52;;;;;;;18.27;7.05;;;;;;;2.74;100.00;99392.22;1767161;79;20978;-77
2023/01/05 05:23:20;;;;;;;16.87;7.30;;;;;;;2.73;100.00;99376.83;1739303;79;21857;-77
2023/01/05 05:25:51;;;;;;;12.88;6.42;;;;;;;2.77;100.00;99373.02;1769348;80;21066;-77
2023/01/05 05:28:21;;;;;;;12.82;5.60;;;;;;;2.78;100.00;99370.88;1763561;79;21014;-76
2023/01/05 05:30:48;;;;;;;15.38;6.85;;;;;;;2.83;100.00;99361.95;1769005;79;21061;-77
2023/01/05 05:33:15;;;;;;;12.53;5.83;;;;;;;2.75;100.00;99367.00;1756139;79;20963;-77
2023/01/05 05:35:42;;;;;;;11.10;6.25;;;;;;;2.80;100.00;99370.89;1768964;80;21469;-76
2023/01/05 05:38:08;;;;;;;14.28;6.47;;;;;;;2.79;100.00;99368.76;1764087;79;21014;-77
2023/01/05 05:40:35;;;;;;;11.40;5.85;;;;;;;2.77;100.00;99364.03;1768840;79;20998;-77
2023/01/05 05:43:01;;;;;;;12.55;5.78;;;;;;;2.83;100.00;99360.67;1764128;81;21021;-76
2023/01/05 05:45:27;;;;;;;13.43;6.30;;;;;;;2.82;100.00;99360.22;1768182;79;20988;-76
2023/01/05 05:47:54;;;;;;;15.13;6.85;;;;;;;2.87;100.00;99362.85;1767487;79;22291;-77
2023/01/05 05:50:21;;;;;;;14.13;6.03;;;;;;;2.82;100.00;99349.94;1767212;79;20977;-77
2023/01/05 05:52:48;;;;;;;15.08;6.12;;;;;;;2.90;100.00;99344.89;1765011;79;21022;-76
2023/01/05 05:55:15;;;;;;;12.47;6.58;;;;;;;2.92;100.00;99345.33;1770756;81;21436;-76
2023/01/05 05:57:41;;;;;;;15.68;7.03;;;;;;;2.90;100.00;99340.61;1765757;79;21521;-76
2023/01/05 06:00:09;;;;;;;12.50;6.30;;;;;;;2.86;100.00;99333.72;1761876;80;21711;-76
2023/01/05 06:02:40;;;;;;;14.90;6.30;;;;;;;2.84;100.00;99326.86;1770766;79;20950;-76
2023/01/05 06:05:08;;;;;;;14.75;6.62;;;;;;;2.89;100.00;99321.36;1763496;79;20930;-76
2023/01/05 06:07:34;;;;;;;14.43;6.08;;;;;;;2.80;100.00;99320.82;1769272;79;20982;-77
2023/01/05 06:10:01;;;;;;;15.13;5.85;;;;;;;2.79;100.00;99312.70;1772352;80;20934;-76
2023/01/05 06:12:28;;;;;;;14.43;6.60;;;;;;;2.83;99.69;99314.87;1774214;79;21004;-76
2023/01/05 06:14:55;;;;;;;14.53;6.40;;;;;;;2.69;100.00;99323.73;1773124;80;21009;-76
2023/01/05 06:17:21;;;;;;;13.95;5.90;;;;;;;2.74;100.00;99329.75;1772728;79;20999;-76
2023/01/05 06:19:48;;;;;;;16.37;6.05;;;;;;;2.70;100.00;99330.13;1766118;79;21017;-76
2023/01/05 06:22:14;;;;;;;10.78;5.62;;;;;;;2.69;100.00;99332.71;1773009;79;20981;-77
2023/01/05 06:24:40;;;;;;;12.98;6.33;;;;;;;2.68;100.00;99318.99;1765505;79;21001;-77
2023/01/05 06:27:07;;;;;;;13.83;6.03;;;;;;;2.70;100.00;99294.63;1751418;80;20985;-76
2023/01/05 06:29:33;;;;;;;10.03;5.10;;;;;;;2.72;100.00;99287.80;1765465;79;20997;-76
2023/01/05 06:32:00;;;;;;;11.15;5.47;;;;;;;2.79;99.94;99293.02;1752884;79;22133;-77
2023/01/05 06:34:26;;;;;;;12.33;4.87;;;;;;;2.80;99.70;99279.73;1748829;81;20997;-76
2023/01/05 06:36:54;;;;;;;10.32;5.67;;;;;;;2.91;99.55;99290.98;1753446;80;21073;-76
2023/01/05 06:39:21;;;;;;;9.93;4.97;;;;;;;2.95;98.88;99293.16;1770201;79;21056;-76
2023/01/05 06:41:47;;;;;;;11.88;5.67;;;;;;;3.03;98.58;99304.79;1757034;79;21557;-76
2023/01/05 06:44:14;;;;;;;12.50;5.80;;;;;;;3.06;97.91;99300.94;1771546;79;20993;-76
2023/01/05 06:46:40;;;;;;;11.78;6.03;;;;;;;3.05;97.36;99298.80;1759451;80;21009;-76
2023/01/05 06:49:09;;;;;;;11.90;5.72;;;;;;;3.09;97.24;99303.55;1771064;79;20993;-77
2023/01/05 06:51:35;;;;;;;11.70;5.37;;;;;;;3.08;97.22;99305.67;1763854;80;21952;-77
2023/01/05 06:54:01;;;;;;;10.43;4.28;;;;;;;3.07;96.92;99304.81;1769316;79;21068;-77
2023/01/05 06:56:28;;;;;;;10.68;5.40;;;;;;;3.16;97.03;99307.87;1750435;80;21685;-77
2023/01/05 06:58:55;;;;;;;11.10;4.92;;;;;;;3.17;97.15;99318.60;1750647;80;20997;-79
2023/01/05 07:01:21;;;;;;;9.80;5.25;;;;;;;3.14;96.89;99313.42;1742390;80;21069;-77
2023/01/05 07:03:47;;;;;;;10.23;4.78;;;;;;;3.17;96.90;99307.05;1729180;81;20994;-77
2023/01/05 07:06:15;;;;;;;12.10;4.75;;;;;;;3.23;97.34;99304.95;1747691;80;21014;-77
2023/01/05 07:08:42;;;;;;;10.93;5.15;;;;;;;3.25;97.34;99317.38;1750274;80;20974;-77
2023/01/05 07:11:08;;;;;;;10.72;4.95;;;;;;;3.26;97.17;99312.23;1757197;80;21497;-77
2023/01/05 07:13:35;;;;;;;13.53;5.00;;;;;;;3.27;97.10;99306.69;1757268;81;20954;-77
2023/01/05 07:16:02;;;;;;;11.40;5.78;;;;;;;3.25;96.97;99307.95;1752983;80;21021;-77
2023/01/05 07:18:28;;;;;;;14.10;6.92;;;;;;;3.32;97.34;99313.59;1754255;81;21001;-77
2023/01/05 07:20:55;;;;;;;12.55;6.45;;;;;;;3.23;97.01;99312.23;1755528;80;21498;-79
2023/01/05 07:23:21;;;;;;;12.18;6.17;;;;;;;3.25;97.09;99302.82;1742347;80;20970;-77
2023/01/05 07:25:48;;;;;;;10.05;5.75;;;;;;;3.23;97.03;99295.95;1757491;80;21045;-77
2023/01/05 07:28:14;;;;;;;12.25;6.37;;;;;;;3.26;96.84;99303.23;1742058;80;21462;-78
2023/01/05 07:30:41;;;;;;;10.40;5.25;;;;;;;3.22;97.03;99302.78;1757490;81;21033;-77
2023/01/05 07:33:07;;;;;;;16.87;6.97;;;;;;;3.25;97.12;99325.09;1749414;80;20974;-77
2023/01/05 07:35:34;;;;;;;14.20;6.15;;;;;;;3.29;97.25;99312.70;1757286;80;20998;-77
2023/01/05 07:38:00;;;;;;;13.28;5.97;;;;;;;3.34;97.37;99313.18;1753025;80;20986;-77
2023/01/05 07:40:27;;;;;;;12.45;6.08;;;;;;;3.34;97.23;99302.02;1738280;80;20966;-77
2023/01/05 07:42:54;;;;;;;16.23;6.10;;;;;;;3.38;97.20;99296.05;1754036;80;20997;-77
2023/01/05 07:45:21;;;;;;;12.53;5.45;;;;;;;3.42;97.24;99300.79;1737642;81;21098;-77
2023/01/05 07:47:47;;;;;;;10.93;4.90;;;;;;;3.48;97.22;99284.13;1754051;80;21029;-77
2023/01/05 07:50:14;;;;;;;15.20;6.60;;;;;;;3.54;97.27;99289.30;1741652;80;21018;-77
2023/01/05 07:52:40;;;;;;;13.03;5.97;;;;;;;3.54;96.54;99290.19;1756234;80;21000;-78
2023/01/05 07:55:08;;;;;;;13.55;6.33;;;;;;;3.57;96.38;99279.05;1746187;80;21577;-77
2023/01/05 07:57:34;;;;;;;12.93;6.15;;;;;;;3.61;96.50;99273.07;1763156;80;21080;-77
2023/01/05 08:00:02;;;;;;;14.58;6.62;;;;;;;3.62;96.18;99278.66;1755755;81;21557;-77
2023/01/05 08:02:31;;;;;;;16.10;7.87;;;;;;;3.57;95.66;99285.48;1759786;80;21932;-77
2023/01/05 08:04:58;;;;;;;13.05;5.90;;;;;;;3.55;95.40;99281.60;1760474;80;21461;-76
2023/01/05 08:07:25;;;;;;;10.72;5.45;;;;;;;3.54;95.49;99267.05;1759179;80;21513;-78
2023/01/05 08:13:58;;;;;;;15.30;5.87;;;;;;;3.53;95.77;99258.88;1760496;80;21990;-77
2023/01/05 08:15:06;;;;;;;9.68;4.50;;;;;;;3.58;95.90;99264.05;1750632;80;21014;-76
2023/01/05 08:17:32;;;;;;;10.70;5.70;;;;;;;3.60;96.00;99270.05;1761939;80;21379;-78
2023/01/05 08:19:59;;;;;;;12.68;5.28;;;;;;;3.69;96.33;99268.83;1760062;80;21017;-78
2023/01/05 08:22:25;;;;;;;11.90;5.35;;;;;;;3.75;95.99;99268.86;1757152;80;20973;-76
2023/01/05 08:24:52;;;;;;;11.60;5.37;;;;;;;3.83;95.43;99261.19;1763133;80;21067;-77
2023/01/05 08:27:18;;;;;;;14.20;6.22;;;;;;;3.94;95.28;99265.11;1752164;80;22213;-77
2023/01/05 08:29:45;;;;;;;13.48;6.10;;;;;;;4.05;95.65;99268.57;1764144;80;21000;-78
2023/01/05 08:32:11;;;;;;;13.08;5.47;;;;;;;4.13;95.61;99257.88;1752033;80;21009;-77
2023/01/05 08:34:38;;;;;;;10.85;5.20;;;;;;;4.23;94.28;99261.77;1764876;80;21029;-77
2023/01/05 08:37:04;;;;;;;12.78;5.35;;;;;;;4.36;94.02;99263.55;1762107;80;21109;-77
2023/01/05 08:39:31;;;;;;;12.28;5.12;;;;;;;4.45;93.21;99254.53;1763731;80;21045;-77
2023/01/05 08:41:57;;;;;;;8.75;4.40;;;;;;;4.58;93.62;99249.00;1755360;80;21586;-77
2023/01/05 08:44:24;;;;;;;14.43;5.67;;;;;;;4.68;94.08;99240.42;1759057;80;21074;-77
2023/01/05 08:46:50;;;;;;;21.23;7.45;;;;;;;4.77;93.79;99223.70;1793984;79;20993;-77
2023/01/05 08:49:16;;;;;;;15.23;7.78;;;;;;;4.89;93.29;99209.08;1796064;78;21082;-77
2023/01/05 08:51:43;;;;;;;15.13;7.08;;;;;;;4.97;92.13;99203.48;1794119;78;20959;-77
2023/01/05 08:54:10;;;;;;;12.98;4.87;;;;;;;5.08;91.84;99218.52;1793289;78;21011;-76
2023/01/05 08:56:36;;;;;;;13.03;4.53;;;;;;;5.22;92.29;99221.52;1798061;78;21042;-76
2023/01/05 08:59:03;;;;;;;9.30;4.58;;;;;;;5.33;91.59;99210.33;1792455;78;21510;-77
2023/01/05 09:01:30;;;;;;;12.10;4.10;;;;;;;5.43;89.81;99207.30;1791894;78;21011;-77
2023/01/05 09:03:56;;;;;;;11.18;4.72;;;;;;;5.58;91.41;99196.08;1800265;78;21456;-77
2023/01/05 09:06:22;;;;;;;7.78;3.47;;;;;;;5.71;90.97;99197.75;1773274;79;20985;-77
2023/01/05 09:08:49;;;;;;;8.75;4.10;;;;;;;5.80;90.64;99185.23;1774638;79;21291;-76
2023/01/05 09:11:19;;;;;;;25.05;7.40;;;;;;;5.95;90.77;99181.34;1749537;81;20990;-77
2023/01/05 09:13:50;;;;;;;18.95;7.78;;;;;;;6.12;89.85;99172.64;1797948;78;21014;-76
2023/01/05 09:16:21;;;;;;;32.65;9.73;;;;;;;6.30;89.89;99163.48;1783013;78;20943;-76
2023/01/05 09:18:48;;;;;;;21.93;7.72;;;;;;;6.49;88.77;99171.97;1791036;78;21011;-77
2023/01/05 09:21:16;;;;;;;8.90;4.22;;;;;;;6.64;89.07;99168.39;1798832;79;21720;-76
2023/01/05 09:23:43;;;;;;;12.18;4.95;;;;;;;6.80;89.92;99170.86;1791161;78;21012;-77
2023/01/05 09:26:14;;;;;;;11.60;5.40;;;;;;;6.91;88.58;99167.31;1792575;79;20974;-76
2023/01/05 09:28:41;;;;;;;11.53;4.87;;;;;;;7.02;88.16;99170.23;1790936;79;20966;-77
2023/01/05 09:31:11;;;;;;;12.95;5.95;;;;;;;7.11;88.53;99167.12;1782674;80;21540;-77
2023/01/05 09:33:39;;;;;;;22.65;5.35;;;;;;;7.14;87.47;99169.69;1739193;81;20987;-76
2023/01/05 09:36:07;;;;;;;13.18;5.58;;;;;;;7.16;88.63;99171.83;1754137;80;20967;-76
2023/01/05 09:38:34;;;;;;;11.57;4.90;;;;;;;7.23;88.65;99176.93;1775795;79;20946;-76
2023/01/05 09:41:21;;;;;;;12.10;4.85;;;;;;;7.23;88.43;99177.78;1770345;79;21538;-76
2023/01/05 09:43:54;;;;;;;12.30;3.85;;;;;;;7.22;87.94;99166.15;1772959;79;21899;-76
2023/01/05 09:46:26;;;;;;;18.23;6.47;;;;;;;7.25;89.35;99161.81;1791312;79;21459;-76
2023/01/05 09:48:56;;;;;;;14.18;6.78;;;;;;;7.23;89.07;99157.09;1782212;79;21018;-77
2023/01/05 09:51:23;;;;;;;16.52;6.80;;;;;;;7.23;87.73;99150.62;1746764;81;21000;-77
2023/01/05 09:53:49;;;;;;;13.55;6.45;;;;;;;7.20;86.71;99144.62;1742908;81;20985;-77
2023/01/05 09:56:27;;;;;;;12.75;5.87;;;;;;;7.08;86.09;99150.77;1731895;81;22118;-76
2023/01/05 09:59:02;;;;;;;11.75;6.00;;;;;;;7.02;86.42;99154.72;1741453;81;21019;-77
2023/01/05 10:01:32;;;;;;;13.48;6.15;;;;;;;6.88;86.35;99146.65;1734855;81;21002;-76
2023/01/05 10:04:12;;;;;;;14.85;6.95;;;;;;;6.82;86.66;99133.79;1757846;80;21482;-76
2023/01/05 10:06:44;;;;;;;14.15;7.17;;;;;;;6.78;87.17;99126.94;1741395;82;21080;-77
2023/01/05 10:09:16;;;;;;;15.65;6.85;;;;;;;6.77;87.51;99127.82;1716879;82;20970;-76
2023/01/05 10:15:08;;;;;;;13.05;6.17;;;;;;;6.63;87.20;99127.09;1756186;80;20972;-75
2023/01/05 10:17:40;;;;;;;12.53;6.05;;;;;;;6.54;88.05;99120.27;1752771;80;21035;-76
2023/01/05 10:20:24;;;;;;;10.53;5.97;;;;;;;6.51;88.53;99109.53;1738897;81;21539;-76
2023/01/05 10:23:20;;;;;;;14.30;5.78;;;;;;;6.38;88.92;99106.62;1738859;82;20956;-76
2023/01/05 10:25:58;;;;;;;11.65;6.50;;;;;;;6.30;88.79;99104.53;1733456;81;21004;-76
2023/01/05 10:28:51;;;;;;;17.32;6.92;;;;;;;6.35;89.44;99097.62;1754748;81;21020;-76
2023/01/05 10:31:34;;;;;;;15.80;7.67;;;;;;;6.37;89.66;99101.05;1731182;81;21305;-77
2023/01/05 10:34:21;;;;;;;15.20;7.83;;;;;;;6.32;89.49;99092.47;1727056;81;21887;-77
2023/01/05 10:36:59;;;;;;;17.87;7.55;;;;;;;6.35;89.86;99079.55;1754204;80;21510;-76
2023/01/05 10:40:04;;;;;;;20.20;8.20;;;;;;;6.35;89.59;99075.67;1755407;81;21031;-77
2023/01/05 10:42:51;;;;;;;16.07;6.90;;;;;;;6.48;90.04;99068.22;1697485;82;20979;-76
2023/01/05 10:45:19;;;;;;;15.55;6.87;;;;;;;6.58;89.67;99062.53;1694961;83;21143;-77
2023/01/05 10:47:48;;;;;;;17.57;6.67;;;;;;;6.71;89.32;99060.70;1693034;83;21015;-76
2023/01/05 10:50:40;;;;;;;16.17;5.90;;;;;;;6.75;89.92;99047.73;1694756;83;21025;-77
2023/01/05 10:53:15;;;;;;;16.40;6.67;;;;;;;6.94;90.29;99047.11;1694008;82;21590;-76
2023/01/05 10:56:14;;;;;;;13.62;6.92;;;;;;;7.19;89.60;99042.94;1714707;80;21490;-77
2023/01/05 10:58:43;;;;;;;11.97;6.30;;;;;;;7.36;88.83;99031.95;1755110;80;21015;-76
2023/01/05 11:01:26;;;;;;;12.93;6.60;;;;;;;7.64;89.08;99017.34;1756566;80;20961;-77
2023/01/05 11:04:10;;;;;;;13.33;6.40;;;;;;;7.79;87.96;99022.72;1739656;81;21046;-77
2023/01/05 11:06:37;;;;;;;12.03;6.15;;;;;;;8.06;88.21;99011.09;1716491;82;21517;-76
2023/01/05 11:09:15;;;;;;;14.55;6.53;;;;;;;8.27;86.63;99003.38;1731227;81;20979;-77
2023/01/05 11:11:42;;;;;;;17.10;6.25;;;;;;;8.44;85.31;98995.36;1750417;80;21000;-76
2023/01/05 11:14:16;;;;;;;10.82;5.78;;;;;;;8.66;84.64;99004.89;1712197;82;20997;-77
2023/01/05 11:16:54;;;;;;;13.98;5.15;;;;;;;8.81;82.96;99004.17;1732970;81;20999;-77
2023/01/05 11:19:26;;;;;;;9.33;4.70;;;;;;;8.97;83.47;98999.09;1731176;81;21015;-77
2023/01/05 11:21:53;;;;;;;10.10;4.28;;;;;;;9.07;80.20;99000.64;1757742;80;21038;-76
2023/01/05 11:24:28;;;;;;;10.05;4.20;;;;;;;9.20;79.91;98990.85;1714368;81;20969;-77
2023/01/05 11:27:00;;;;;;;11.50;5.40;;;;;;;9.31;79.89;98991.48;1734486;81;21451;-76
2023/01/05 11:29:28;;;;;;;13.38;4.37;;;;;;;9.41;81.35;98977.88;1711509;81;20967;-77
2023/01/05 11:32:00;;;;;;;14.60;5.00;;;;;;;9.49;80.89;98978.97;1741955;81;21010;-77
2023/01/05 11:34:45;;;;;;;8.75;4.62;;;;;;;9.51;79.18;98969.41;1730507;81;21014;-76
2023/01/05 11:37:23;;;;;;;11.70;4.55;;;;;;;9.47;77.59;98970.37;1762536;80;20992;-77
2023/01/05 11:39:55;;;;;;;10.25;5.22;;;;;;;9.50;80.10;98965.13;1758790;80;21034;-77
2023/01/05 11:42:32;;;;;;;12.80;4.33;;;;;;;9.43;78.71;98946.68;1752215;80;20963;-77
2023/01/05 11:45:28;;;;;;;12.15;4.85;;;;;;;9.47;79.04;98949.61;1725258;81;21452;-77
2023/01/05 11:47:58;;;;;;;7.35;3.83;;;;;;;9.44;78.49;98923.30;1669603;84;21001;-77
2023/01/05 11:50:29;;;;;;;13.90;4.35;;;;;;;9.45;77.83;98924.14;1688202;83;21012;-77
2023/01/05 11:53:03;;;;;;;16.75;4.87;;;;;;;9.45;78.16;98918.53;1672084;84;21051;-77
2023/01/05 11:55:38;;;;;;;12.18;5.03;;;;;;;9.53;78.77;98915.31;1683972;83;20966;-77
2023/01/05 11:58:30;;;;;;;16.70;4.97;;;;;;;9.59;78.91;98919.92;1714568;82;20988;-77
2023/01/05 12:01:11;;;;;;;12.05;4.85;;;;;;;9.71;78.26;98933.48;1698391;83;20956;-76
2023/01/05 12:03:56;;;;;;;13.75;5.00;;;;;;;9.82;76.99;98932.36;1718122;82;21015;-77
2023/01/05 12:06:49;;;;;;;11.78;4.65;;;;;;;9.89;76.56;98928.73;1715598;82;21046;-76
2023/01/05 12:09:37;;;;;;;15.78;5.08;;;;;;;10.06;76.07;98916.15;1703790;82;21659;-77
2023/01/05 12:12:41;;;;;;;8.18;4.60;;;;;;;10.02;76.75;98904.14;1716354;82;21002;-77
2023/01/05 12:15:30;;;;;;;12.03;5.67;;;;;;;9.86;76.05;98895.05;1645449;83;20955;-76
2023/01/05 12:18:20;;;;;;;11.57;5.60;;;;;;;9.75;77.23;98887.08;1714707;82;21003;-77
2023/01/05 12:21:22;;;;;;;16.55;5.70;;;;;;;9.69;77.39;98885.09;1706853;82;20988;-77
2023/01/05 12:24:36;;;;;;;15.60;4.40;;;;;;;9.63;76.17;98921.55;1714208;83;21018;-77
2023/01/05 12:27:26;;;;;;;16.90;5.72;;;;;;;9.53;76.45;98916.61;1725115;82;21589;-77